sensor_id;sensor_type;location;lat;lon;timestamp;P1;durP1;ratioP1;P2;durP2;ratioP2
76423;SDS011;65257;52.104;4.268;2023-04-08T00:01:18;33.10;;;14.43;;
76423;SDS011;65257;52.104;4.268;2023-04-08T00:03:43;38.38;;;15.77;;
76423;SDS011;65257;52.104;4.268;2023-04-08T00:06:09;32.90;;;14.82;;
76423;SDS011;65257;52.104;4.268;2023-04-08T00:08:35;37.92;;;15.45;;
76423;SDS011;65257;52.104;4.268;2023-04-08T00:11:03;43.42;;;15.93;;
76423;SDS011;65257;52.104;4.268;2023-04-08T00:13:28;44.88;;;16.95;;
76423;SDS011;65257;52.104;4.268;2023-04-08T00:15:57;39.08;;;16.55;;
76423;SDS011;65257;52.104;4.268;2023-04-08T00:18:23;45.78;;;16.83;;
76423;SDS011;65257;52.104;4.268;2023-04-08T00:20:48;41.97;;;15.75;;
76423;SDS011;65257;52.104;4.268;2023-04-08T00:23:13;50.38;;;16.17;;
76423;SDS011;65257;52.104;4.268;2023-04-08T00:25:42;38.35;;;15.88;;
76423;SDS011;65257;52.104;4.268;2023-04-08T00:28:10;34.47;;;15.55;;
76423;SDS011;65257;52.104;4.268;2023-04-08T00:30:36;48.38;;;15.93;;
76423;SDS011;65257;52.104;4.268;2023-04-08T00:33:04;44.28;;;17.40;;
76423;SDS011;65257;52.104;4.268;2023-04-08T00:35:30;51.58;;;17.80;;
76423;SDS011;65257;52.104;4.268;2023-04-08T00:37:55;46.13;;;17.25;;
76423;SDS011;65257;52.104;4.268;2023-04-08T00:40:24;43.92;;;16.25;;
76423;SDS011;65257;52.104;4.268;2023-04-08T00:42:52;44.20;;;17.27;;
76423;SDS011;65257;52.104;4.268;2023-04-08T00:45:18;45.67;;;16.90;;
76423;SDS011;65257;52.104;4.268;2023-04-08T00:47:43;47.08;;;16.42;;
76423;SDS011;65257;52.104;4.268;2023-04-08T00:50:10;45.00;;;18.65;;
76423;SDS011;65257;52.104;4.268;2023-04-08T00:52:36;40.60;;;16.85;;
76423;SDS011;65257;52.104;4.268;2023-04-08T00:55:01;38.03;;;16.73;;
76423;SDS011;65257;52.104;4.268;2023-04-08T00:57:27;37.00;;;15.63;;
76423;SDS011;65257;52.104;4.268;2023-04-08T00:59:52;40.75;;;15.15;;
76423;SDS011;65257;52.104;4.268;2023-04-08T01:02:40;32.78;;;14.35;;
76423;SDS011;65257;52.104;4.268;2023-04-08T01:05:29;37.20;;;15.68;;
76423;SDS011;65257;52.104;4.268;2023-04-08T01:08:15;39.30;;;15.57;;
76423;SDS011;65257;52.104;4.268;2023-04-08T01:10:41;36.28;;;15.32;;
76423;SDS011;65257;52.104;4.268;2023-04-08T01:13:15;43.35;;;16.35;;
76423;SDS011;65257;52.104;4.268;2023-04-08T01:15:42;47.08;;;15.02;;
76423;SDS011;65257;52.104;4.268;2023-04-08T01:18:12;38.45;;;16.52;;
76423;SDS011;65257;52.104;4.268;2023-04-08T01:20:40;35.00;;;15.70;;
76423;SDS011;65257;52.104;4.268;2023-04-08T01:23:12;39.20;;;17.75;;
76423;SDS011;65257;52.104;4.268;2023-04-08T01:25:54;41.80;;;16.40;;
76423;SDS011;65257;52.104;4.268;2023-04-08T01:28:21;45.85;;;15.95;;
76423;SDS011;65257;52.104;4.268;2023-04-08T01:30:55;40.65;;;16.80;;
76423;SDS011;65257;52.104;4.268;2023-04-08T01:33:23;38.47;;;16.08;;
76423;SDS011;65257;52.104;4.268;2023-04-08T01:35:52;41.30;;;16.77;;
76423;SDS011;65257;52.104;4.268;2023-04-08T01:38:20;42.55;;;16.23;;
76423;SDS011;65257;52.104;4.268;2023-04-08T01:40:50;41.95;;;14.90;;
76423;SDS011;65257;52.104;4.268;2023-04-08T01:43:27;35.05;;;15.63;;
76423;SDS011;65257;52.104;4.268;2023-04-08T01:45:56;38.67;;;15.52;;
76423;SDS011;65257;52.104;4.268;2023-04-08T01:48:23;41.38;;;15.85;;
76423;SDS011;65257;52.104;4.268;2023-04-08T01:50:50;40.50;;;16.50;;
76423;SDS011;65257;52.104;4.268;2023-04-08T01:53:16;42.65;;;16.25;;
76423;SDS011;65257;52.104;4.268;2023-04-08T01:55:43;43.20;;;16.15;;
76423;SDS011;65257;52.104;4.268;2023-04-08T01:58:12;41.60;;;16.90;;
76423;SDS011;65257;52.104;4.268;2023-04-08T02:00:44;45.08;;;17.73;;
76423;SDS011;65257;52.104;4.268;2023-04-08T02:03:11;47.33;;;16.85;;
76423;SDS011;65257;52.104;4.268;2023-04-08T02:05:45;42.90;;;17.08;;
76423;SDS011;65257;52.104;4.268;2023-04-08T02:08:23;38.67;;;17.10;;
76423;SDS011;65257;52.104;4.268;2023-04-08T02:10:48;45.67;;;16.27;;
76423;SDS011;65257;52.104;4.268;2023-04-08T02:13:20;36.75;;;15.38;;
76423;SDS011;65257;52.104;4.268;2023-04-08T02:15:51;36.33;;;14.57;;
76423;SDS011;65257;52.104;4.268;2023-04-08T02:18:21;37.10;;;15.10;;
76423;SDS011;65257;52.104;4.268;2023-04-08T02:20:56;35.92;;;14.73;;
76423;SDS011;65257;52.104;4.268;2023-04-08T02:23:28;31.23;;;14.45;;
76423;SDS011;65257;52.104;4.268;2023-04-08T02:25:58;36.47;;;14.02;;
76423;SDS011;65257;52.104;4.268;2023-04-08T02:28:24;35.33;;;12.82;;
76423;SDS011;65257;52.104;4.268;2023-04-08T02:30:51;29.25;;;14.20;;
76423;SDS011;65257;52.104;4.268;2023-04-08T02:33:20;36.92;;;14.48;;
76423;SDS011;65257;52.104;4.268;2023-04-08T02:35:47;36.60;;;14.95;;
76423;SDS011;65257;52.104;4.268;2023-04-08T02:38:18;39.10;;;14.05;;
76423;SDS011;65257;52.104;4.268;2023-04-08T02:40:54;37.25;;;14.48;;
76423;SDS011;65257;52.104;4.268;2023-04-08T02:43:19;36.25;;;15.18;;
76423;SDS011;65257;52.104;4.268;2023-04-08T02:45:45;43.78;;;15.88;;
76423;SDS011;65257;52.104;4.268;2023-04-08T02:48:10;44.75;;;16.40;;
76423;SDS011;65257;52.104;4.268;2023-04-08T02:50:36;46.58;;;16.00;;
76423;SDS011;65257;52.104;4.268;2023-04-08T02:53:06;45.13;;;16.67;;
76423;SDS011;65257;52.104;4.268;2023-04-08T02:55:32;52.83;;;14.45;;
76423;SDS011;65257;52.104;4.268;2023-04-08T02:57:58;49.08;;;15.80;;
76423;SDS011;65257;52.104;4.268;2023-04-08T03:00:23;55.38;;;16.20;;
76423;SDS011;65257;52.104;4.268;2023-04-08T03:02:49;49.00;;;15.68;;
76423;SDS011;65257;52.104;4.268;2023-04-08T03:05:18;47.25;;;15.63;;
76423;SDS011;65257;52.104;4.268;2023-04-08T03:07:43;43.92;;;15.88;;
76423;SDS011;65257;52.104;4.268;2023-04-08T03:10:08;49.50;;;16.55;;
76423;SDS011;65257;52.104;4.268;2023-04-08T03:12:34;45.05;;;14.55;;
76423;SDS011;65257;52.104;4.268;2023-04-08T03:15:00;46.30;;;14.73;;
76423;SDS011;65257;52.104;4.268;2023-04-08T03:17:27;45.10;;;16.38;;
76423;SDS011;65257;52.104;4.268;2023-04-08T03:19:58;48.72;;;15.95;;
76423;SDS011;65257;52.104;4.268;2023-04-08T03:22:24;42.05;;;15.13;;
76423;SDS011;65257;52.104;4.268;2023-04-08T03:24:52;42.38;;;15.07;;
76423;SDS011;65257;52.104;4.268;2023-04-08T03:27:17;47.60;;;15.75;;
76423;SDS011;65257;52.104;4.268;2023-04-08T03:29:43;43.58;;;14.93;;
76423;SDS011;65257;52.104;4.268;2023-04-08T03:32:10;45.35;;;15.93;;
76423;SDS011;65257;52.104;4.268;2023-04-08T03:34:35;41.53;;;15.30;;
76423;SDS011;65257;52.104;4.268;2023-04-08T03:37:01;43.95;;;15.68;;
76423;SDS011;65257;52.104;4.268;2023-04-08T03:39:26;40.60;;;16.13;;
76423;SDS011;65257;52.104;4.268;2023-04-08T03:41:52;42.10;;;14.48;;
76423;SDS011;65257;52.104;4.268;2023-04-08T03:44:20;40.85;;;14.63;;
76423;SDS011;65257;52.104;4.268;2023-04-08T03:46:45;40.92;;;14.45;;
76423;SDS011;65257;52.104;4.268;2023-04-08T03:49:14;38.83;;;14.10;;
76423;SDS011;65257;52.104;4.268;2023-04-08T03:51:39;36.63;;;13.55;;
76423;SDS011;65257;52.104;4.268;2023-04-08T03:54:05;37.67;;;15.23;;
76423;SDS011;65257;52.104;4.268;2023-04-08T03:56:31;41.25;;;14.45;;
76423;SDS011;65257;52.104;4.268;2023-04-08T03:58:57;41.53;;;13.77;;
76423;SDS011;65257;52.104;4.268;2023-04-08T04:01:22;40.60;;;15.07;;
76423;SDS011;65257;52.104;4.268;2023-04-08T04:03:48;48.22;;;14.48;;
76423;SDS011;65257;52.104;4.268;2023-04-08T04:06:15;39.70;;;13.77;;
76423;SDS011;65257;52.104;4.268;2023-04-08T04:08:46;39.65;;;14.15;;
76423;SDS011;65257;52.104;4.268;2023-04-08T04:11:12;38.63;;;14.10;;
76423;SDS011;65257;52.104;4.268;2023-04-08T04:13:43;50.22;;;15.65;;
76423;SDS011;65257;52.104;4.268;2023-04-08T04:16:25;56.50;;;15.32;;
76423;SDS011;65257;52.104;4.268;2023-04-08T04:18:51;66.30;;;17.25;;
76423;SDS011;65257;52.104;4.268;2023-04-08T04:21:17;71.18;;;17.42;;
76423;SDS011;65257;52.104;4.268;2023-04-08T04:23:43;59.45;;;17.10;;
76423;SDS011;65257;52.104;4.268;2023-04-08T04:26:09;79.53;;;17.88;;
76423;SDS011;65257;52.104;4.268;2023-04-08T04:28:38;79.90;;;17.27;;
76423;SDS011;65257;52.104;4.268;2023-04-08T04:31:07;69.82;;;16.92;;
76423;SDS011;65257;52.104;4.268;2023-04-08T04:33:32;78.35;;;17.23;;
76423;SDS011;65257;52.104;4.268;2023-04-08T04:35:58;71.07;;;19.13;;
76423;SDS011;65257;52.104;4.268;2023-04-08T04:38:23;69.65;;;16.83;;
76423;SDS011;65257;52.104;4.268;2023-04-08T04:40:51;75.05;;;16.70;;
76423;SDS011;65257;52.104;4.268;2023-04-08T04:43:17;64.43;;;16.42;;
76423;SDS011;65257;52.104;4.268;2023-04-08T04:45:42;46.70;;;15.15;;
76423;SDS011;65257;52.104;4.268;2023-04-08T04:48:09;41.10;;;14.98;;
76423;SDS011;65257;52.104;4.268;2023-04-08T04:50:34;42.55;;;14.77;;
76423;SDS011;65257;52.104;4.268;2023-04-08T04:53:00;48.08;;;14.07;;
76423;SDS011;65257;52.104;4.268;2023-04-08T04:55:25;51.78;;;15.38;;
76423;SDS011;65257;52.104;4.268;2023-04-08T04:57:50;49.25;;;15.77;;
76423;SDS011;65257;52.104;4.268;2023-04-08T05:00:16;43.05;;;14.43;;
76423;SDS011;65257;52.104;4.268;2023-04-08T05:02:41;42.63;;;15.50;;
76423;SDS011;65257;52.104;4.268;2023-04-08T05:05:11;47.63;;;15.40;;
76423;SDS011;65257;52.104;4.268;2023-04-08T05:07:37;43.80;;;15.73;;
76423;SDS011;65257;52.104;4.268;2023-04-08T05:10:03;54.08;;;16.42;;
76423;SDS011;65257;52.104;4.268;2023-04-08T05:12:31;48.83;;;14.98;;
76423;SDS011;65257;52.104;4.268;2023-04-08T05:14:57;48.17;;;15.88;;
76423;SDS011;65257;52.104;4.268;2023-04-08T05:17:26;53.80;;;16.52;;
76423;SDS011;65257;52.104;4.268;2023-04-08T05:19:51;43.53;;;15.73;;
76423;SDS011;65257;52.104;4.268;2023-04-08T05:22:20;50.58;;;15.93;;
76423;SDS011;65257;52.104;4.268;2023-04-08T05:24:46;48.28;;;16.25;;
76423;SDS011;65257;52.104;4.268;2023-04-08T05:27:13;55.25;;;17.13;;
76423;SDS011;65257;52.104;4.268;2023-04-08T05:29:38;48.17;;;16.40;;
76423;SDS011;65257;52.104;4.268;2023-04-08T05:32:04;53.85;;;16.67;;
76423;SDS011;65257;52.104;4.268;2023-04-08T05:34:30;57.95;;;19.15;;
76423;SDS011;65257;52.104;4.268;2023-04-08T05:36:56;55.72;;;16.70;;
76423;SDS011;65257;52.104;4.268;2023-04-08T05:39:24;61.03;;;17.27;;
76423;SDS011;65257;52.104;4.268;2023-04-08T05:41:52;49.50;;;16.75;;
76423;SDS011;65257;52.104;4.268;2023-04-08T05:44:18;48.00;;;15.75;;
76423;SDS011;65257;52.104;4.268;2023-04-08T05:46:43;52.55;;;17.25;;
76423;SDS011;65257;52.104;4.268;2023-04-08T05:49:08;53.60;;;17.73;;
76423;SDS011;65257;52.104;4.268;2023-04-08T05:51:34;55.55;;;18.67;;
76423;SDS011;65257;52.104;4.268;2023-04-08T05:53:59;44.38;;;17.85;;
76423;SDS011;65257;52.104;4.268;2023-04-08T05:56:25;57.53;;;19.85;;
76423;SDS011;65257;52.104;4.268;2023-04-08T05:58:56;48.78;;;18.40;;
76423;SDS011;65257;52.104;4.268;2023-04-08T06:01:22;50.00;;;17.25;;
76423;SDS011;65257;52.104;4.268;2023-04-08T06:03:47;50.17;;;17.05;;
76423;SDS011;65257;52.104;4.268;2023-04-08T06:06:13;53.63;;;18.60;;
76423;SDS011;65257;52.104;4.268;2023-04-08T06:08:46;53.10;;;17.80;;
76423;SDS011;65257;52.104;4.268;2023-04-08T06:11:13;54.88;;;17.65;;
76423;SDS011;65257;52.104;4.268;2023-04-08T06:13:41;49.83;;;17.10;;
76423;SDS011;65257;52.104;4.268;2023-04-08T06:16:16;48.70;;;16.02;;
76423;SDS011;65257;52.104;4.268;2023-04-08T06:18:41;51.72;;;17.40;;
76423;SDS011;65257;52.104;4.268;2023-04-08T06:21:10;49.45;;;15.98;;
76423;SDS011;65257;52.104;4.268;2023-04-08T06:23:39;54.75;;;19.73;;
76423;SDS011;65257;52.104;4.268;2023-04-08T06:26:07;48.85;;;18.33;;
76423;SDS011;65257;52.104;4.268;2023-04-08T06:28:40;45.78;;;17.35;;
76423;SDS011;65257;52.104;4.268;2023-04-08T06:31:05;48.10;;;18.35;;
76423;SDS011;65257;52.104;4.268;2023-04-08T06:33:31;49.72;;;17.60;;
76423;SDS011;65257;52.104;4.268;2023-04-08T06:36:06;41.10;;;17.15;;
76423;SDS011;65257;52.104;4.268;2023-04-08T06:38:33;46.63;;;18.65;;
76423;SDS011;65257;52.104;4.268;2023-04-08T06:41:05;45.42;;;17.45;;
76423;SDS011;65257;52.104;4.268;2023-04-08T06:43:32;43.03;;;16.23;;
76423;SDS011;65257;52.104;4.268;2023-04-08T06:45:58;45.17;;;17.30;;
76423;SDS011;65257;52.104;4.268;2023-04-08T06:48:24;41.58;;;17.90;;
76423;SDS011;65257;52.104;4.268;2023-04-08T06:50:57;37.00;;;16.80;;
76423;SDS011;65257;52.104;4.268;2023-04-08T06:53:26;44.30;;;16.23;;
76423;SDS011;65257;52.104;4.268;2023-04-08T06:55:56;48.00;;;16.40;;
76423;SDS011;65257;52.104;4.268;2023-04-08T06:58:23;52.88;;;17.40;;
76423;SDS011;65257;52.104;4.268;2023-04-08T07:00:55;42.50;;;15.68;;
76423;SDS011;65257;52.104;4.268;2023-04-08T07:03:20;42.85;;;17.42;;
76423;SDS011;65257;52.104;4.268;2023-04-08T07:05:46;41.55;;;16.35;;
76423;SDS011;65257;52.104;4.268;2023-04-08T07:08:12;39.60;;;16.77;;
76423;SDS011;65257;52.104;4.268;2023-04-08T07:10:37;42.40;;;17.88;;
76423;SDS011;65257;52.104;4.268;2023-04-08T07:13:06;38.95;;;17.17;;
76423;SDS011;65257;52.104;4.268;2023-04-08T07:15:31;37.92;;;15.85;;
76423;SDS011;65257;52.104;4.268;2023-04-08T07:17:56;36.85;;;17.05;;
76423;SDS011;65257;52.104;4.268;2023-04-08T07:20:23;39.50;;;16.75;;
76423;SDS011;65257;52.104;4.268;2023-04-08T07:22:48;34.95;;;16.92;;
76423;SDS011;65257;52.104;4.268;2023-04-08T07:25:14;35.78;;;16.92;;
76423;SDS011;65257;52.104;4.268;2023-04-08T07:27:42;34.90;;;15.85;;
76423;SDS011;65257;52.104;4.268;2023-04-08T07:30:07;41.17;;;17.52;;
76423;SDS011;65257;52.104;4.268;2023-04-08T07:32:34;42.80;;;17.98;;
76423;SDS011;65257;52.104;4.268;2023-04-08T07:35:00;37.33;;;17.15;;
76423;SDS011;65257;52.104;4.268;2023-04-08T07:37:29;34.72;;;17.00;;
76423;SDS011;65257;52.104;4.268;2023-04-08T07:39:55;38.00;;;16.88;;
76423;SDS011;65257;52.104;4.268;2023-04-08T07:42:32;38.78;;;17.60;;
76423;SDS011;65257;52.104;4.268;2023-04-08T07:44:58;40.70;;;18.83;;
76423;SDS011;65257;52.104;4.268;2023-04-08T07:47:23;42.75;;;17.92;;
76423;SDS011;65257;52.104;4.268;2023-04-08T07:49:48;44.83;;;20.70;;
76423;SDS011;65257;52.104;4.268;2023-04-08T07:52:14;45.50;;;19.45;;
76423;SDS011;65257;52.104;4.268;2023-04-08T07:54:45;45.05;;;20.35;;
76423;SDS011;65257;52.104;4.268;2023-04-08T07:59:39;47.08;;;18.85;;
76423;SDS011;65257;52.104;4.268;2023-04-08T08:02:05;48.00;;;19.95;;
76423;SDS011;65257;52.104;4.268;2023-04-08T08:04:30;49.33;;;19.70;;
76423;SDS011;65257;52.104;4.268;2023-04-08T08:07:05;50.35;;;20.70;;
76423;SDS011;65257;52.104;4.268;2023-04-08T08:09:30;45.10;;;21.08;;
76423;SDS011;65257;52.104;4.268;2023-04-08T08:11:56;43.92;;;20.27;;
76423;SDS011;65257;52.104;4.268;2023-04-08T08:14:21;48.72;;;21.08;;
76423;SDS011;65257;52.104;4.268;2023-04-08T08:16:47;45.33;;;20.10;;
76423;SDS011;65257;52.104;4.268;2023-04-08T08:19:13;41.38;;;18.95;;
76423;SDS011;65257;52.104;4.268;2023-04-08T08:21:39;41.25;;;20.30;;
76423;SDS011;65257;52.104;4.268;2023-04-08T08:24:05;37.72;;;19.98;;
76423;SDS011;65257;52.104;4.268;2023-04-08T08:26:34;37.08;;;18.08;;
76423;SDS011;65257;52.104;4.268;2023-04-08T08:29:03;34.35;;;17.23;;
76423;SDS011;65257;52.104;4.268;2023-04-08T08:31:29;39.75;;;18.15;;
76423;SDS011;65257;52.104;4.268;2023-04-08T08:33:55;34.55;;;17.95;;
76423;SDS011;65257;52.104;4.268;2023-04-08T08:36:20;38.13;;;19.80;;
76423;SDS011;65257;52.104;4.268;2023-04-08T08:41:43;33.70;;;17.25;;
76423;SDS011;65257;52.104;4.268;2023-04-08T08:44:10;39.67;;;17.50;;
76423;SDS011;65257;52.104;4.268;2023-04-08T08:46:37;33.60;;;16.67;;
76423;SDS011;65257;52.104;4.268;2023-04-08T08:49:10;33.53;;;16.38;;
76423;SDS011;65257;52.104;4.268;2023-04-08T08:51:38;31.42;;;16.73;;
76423;SDS011;65257;52.104;4.268;2023-04-08T08:54:05;34.35;;;17.90;;
76423;SDS011;65257;52.104;4.268;2023-04-08T08:56:34;32.53;;;16.88;;
76423;SDS011;65257;52.104;4.268;2023-04-08T08:59:03;29.80;;;15.93;;
76423;SDS011;65257;52.104;4.268;2023-04-08T09:01:32;29.45;;;16.20;;
76423;SDS011;65257;52.104;4.268;2023-04-08T09:06:38;30.65;;;16.65;;
76423;SDS011;65257;52.104;4.268;2023-04-08T09:09:04;28.38;;;15.35;;
76423;SDS011;65257;52.104;4.268;2023-04-08T09:11:35;35.20;;;15.55;;
76423;SDS011;65257;52.104;4.268;2023-04-08T09:14:21;29.90;;;14.80;;
76423;SDS011;65257;52.104;4.268;2023-04-08T09:16:51;24.27;;;13.57;;
76423;SDS011;65257;52.104;4.268;2023-04-08T09:19:20;25.27;;;14.85;;
76423;SDS011;65257;52.104;4.268;2023-04-08T09:21:47;26.50;;;14.63;;
76423;SDS011;65257;52.104;4.268;2023-04-08T09:24:29;23.33;;;15.05;;
76423;SDS011;65257;52.104;4.268;2023-04-08T09:27:02;23.02;;;14.98;;
76423;SDS011;65257;52.104;4.268;2023-04-08T09:29:28;25.25;;;14.38;;
76423;SDS011;65257;52.104;4.268;2023-04-08T09:32:01;20.80;;;12.88;;
76423;SDS011;65257;52.104;4.268;2023-04-08T09:34:30;22.20;;;14.15;;
76423;SDS011;65257;52.104;4.268;2023-04-08T09:36:58;21.20;;;14.30;;
76423;SDS011;65257;52.104;4.268;2023-04-08T09:39:23;21.48;;;14.50;;
76423;SDS011;65257;52.104;4.268;2023-04-08T09:41:56;22.00;;;14.85;;
76423;SDS011;65257;52.104;4.268;2023-04-08T09:44:30;20.88;;;14.07;;
76423;SDS011;65257;52.104;4.268;2023-04-08T09:49:45;19.27;;;13.07;;
76423;SDS011;65257;52.104;4.268;2023-04-08T09:52:16;22.27;;;13.73;;
76423;SDS011;65257;52.104;4.268;2023-04-08T09:55:05;20.13;;;13.60;;
76423;SDS011;65257;52.104;4.268;2023-04-08T10:00:24;19.83;;;13.43;;
76423;SDS011;65257;52.104;4.268;2023-04-08T10:03:05;20.73;;;13.80;;
76423;SDS011;65257;52.104;4.268;2023-04-08T10:05:52;21.20;;;14.00;;
76423;SDS011;65257;52.104;4.268;2023-04-08T10:08:22;19.75;;;14.68;;
76423;SDS011;65257;52.104;4.268;2023-04-08T10:10:52;20.60;;;14.00;;
76423;SDS011;65257;52.104;4.268;2023-04-08T10:13:27;16.40;;;12.93;;
76423;SDS011;65257;52.104;4.268;2023-04-08T10:18:44;16.00;;;11.82;;
76423;SDS011;65257;52.104;4.268;2023-04-08T10:24:01;17.08;;;12.27;;
76423;SDS011;65257;52.104;4.268;2023-04-08T10:26:32;16.90;;;11.85;;
76423;SDS011;65257;52.104;4.268;2023-04-08T10:31:43;17.70;;;13.18;;
76423;SDS011;65257;52.104;4.268;2023-04-08T10:34:15;17.63;;;13.00;;
76423;SDS011;65257;52.104;4.268;2023-04-08T10:36:41;18.15;;;13.35;;
76423;SDS011;65257;52.104;4.268;2023-04-08T10:39:07;20.33;;;14.73;;
76423;SDS011;65257;52.104;4.268;2023-04-08T10:41:42;19.33;;;13.73;;
76423;SDS011;65257;52.104;4.268;2023-04-08T10:44:18;19.08;;;13.68;;
76423;SDS011;65257;52.104;4.268;2023-04-08T10:46:52;18.92;;;13.32;;
76423;SDS011;65257;52.104;4.268;2023-04-08T10:49:31;18.83;;;13.93;;
76423;SDS011;65257;52.104;4.268;2023-04-08T10:51:58;18.25;;;13.32;;
76423;SDS011;65257;52.104;4.268;2023-04-08T10:54:30;22.27;;;14.18;;
76423;SDS011;65257;52.104;4.268;2023-04-08T10:56:57;19.17;;;13.85;;
76423;SDS011;65257;52.104;4.268;2023-04-08T10:59:29;19.10;;;13.27;;
76423;SDS011;65257;52.104;4.268;2023-04-08T11:02:04;17.67;;;12.48;;
76423;SDS011;65257;52.104;4.268;2023-04-08T11:06:54;18.07;;;11.90;;
76423;SDS011;65257;52.104;4.268;2023-04-08T11:12:04;16.55;;;11.32;;
76423;SDS011;65257;52.104;4.268;2023-04-08T11:14:30;15.40;;;11.82;;
76423;SDS011;65257;52.104;4.268;2023-04-08T11:17:00;18.33;;;11.18;;
76423;SDS011;65257;52.104;4.268;2023-04-08T11:19:26;15.38;;;10.77;;
76423;SDS011;65257;52.104;4.268;2023-04-08T11:21:55;16.80;;;10.70;;
76423;SDS011;65257;52.104;4.268;2023-04-08T11:24:25;14.25;;;10.25;;
76423;SDS011;65257;52.104;4.268;2023-04-08T11:26:51;18.15;;;10.38;;
76423;SDS011;65257;52.104;4.268;2023-04-08T11:29:16;15.88;;;10.82;;
76423;SDS011;65257;52.104;4.268;2023-04-08T11:31:42;16.83;;;12.07;;
76423;SDS011;65257;52.104;4.268;2023-04-08T11:34:08;17.05;;;11.88;;
76423;SDS011;65257;52.104;4.268;2023-04-08T11:36:34;15.88;;;10.93;;
76423;SDS011;65257;52.104;4.268;2023-04-08T11:39:05;15.77;;;10.30;;
76423;SDS011;65257;52.104;4.268;2023-04-08T11:41:35;15.55;;;10.43;;
76423;SDS011;65257;52.104;4.268;2023-04-08T11:44:03;16.88;;;10.68;;
76423;SDS011;65257;52.104;4.268;2023-04-08T11:46:30;20.20;;;11.32;;
76423;SDS011;65257;52.104;4.268;2023-04-08T11:49:04;15.70;;;10.57;;
76423;SDS011;65257;52.104;4.268;2023-04-08T11:51:31;14.05;;;9.98;;
76423;SDS011;65257;52.104;4.268;2023-04-08T11:54:04;15.38;;;9.93;;
76423;SDS011;65257;52.104;4.268;2023-04-08T11:56:49;14.88;;;10.48;;
76423;SDS011;65257;52.104;4.268;2023-04-08T11:59:16;15.07;;;10.43;;
76423;SDS011;65257;52.104;4.268;2023-04-08T12:01:41;14.35;;;9.45;;
76423;SDS011;65257;52.104;4.268;2023-04-08T12:04:15;14.07;;;9.80;;
76423;SDS011;65257;52.104;4.268;2023-04-08T12:06:41;15.15;;;10.73;;
76423;SDS011;65257;52.104;4.268;2023-04-08T12:09:11;15.73;;;10.27;;
76423;SDS011;65257;52.104;4.268;2023-04-08T12:11:37;15.80;;;10.57;;
76423;SDS011;65257;52.104;4.268;2023-04-08T12:14:06;13.57;;;10.18;;
76423;SDS011;65257;52.104;4.268;2023-04-08T12:16:31;18.10;;;11.25;;
76423;SDS011;65257;52.104;4.268;2023-04-08T12:19:00;22.83;;;10.45;;
76423;SDS011;65257;52.104;4.268;2023-04-08T12:21:25;18.05;;;11.75;;
76423;SDS011;65257;52.104;4.268;2023-04-08T12:23:51;19.48;;;11.27;;
76423;SDS011;65257;52.104;4.268;2023-04-08T12:26:21;17.98;;;12.10;;
76423;SDS011;65257;52.104;4.268;2023-04-08T12:28:50;16.88;;;11.27;;
76423;SDS011;65257;52.104;4.268;2023-04-08T12:31:15;16.83;;;11.82;;
76423;SDS011;65257;52.104;4.268;2023-04-08T12:33:40;16.33;;;11.45;;
76423;SDS011;65257;52.104;4.268;2023-04-08T12:36:06;15.45;;;10.52;;
76423;SDS011;65257;52.104;4.268;2023-04-08T12:38:31;17.90;;;11.35;;
76423;SDS011;65257;52.104;4.268;2023-04-08T12:40:57;17.17;;;11.55;;
76423;SDS011;65257;52.104;4.268;2023-04-08T12:43:23;16.17;;;11.45;;
76423;SDS011;65257;52.104;4.268;2023-04-08T12:45:58;17.77;;;11.98;;
76423;SDS011;65257;52.104;4.268;2023-04-08T12:48:26;18.88;;;11.90;;
76423;SDS011;65257;52.104;4.268;2023-04-08T12:50:51;16.92;;;11.90;;
76423;SDS011;65257;52.104;4.268;2023-04-08T12:53:17;18.90;;;12.23;;
76423;SDS011;65257;52.104;4.268;2023-04-08T12:55:43;18.08;;;12.43;;
76423;SDS011;65257;52.104;4.268;2023-04-08T12:58:15;23.05;;;12.57;;
76423;SDS011;65257;52.104;4.268;2023-04-08T13:00:41;20.67;;;12.05;;
76423;SDS011;65257;52.104;4.268;2023-04-08T13:03:10;20.83;;;12.57;;
76423;SDS011;65257;52.104;4.268;2023-04-08T13:05:36;18.35;;;11.93;;
76423;SDS011;65257;52.104;4.268;2023-04-08T13:08:01;17.90;;;12.35;;
76423;SDS011;65257;52.104;4.268;2023-04-08T13:10:27;20.52;;;13.48;;
76423;SDS011;65257;52.104;4.268;2023-04-08T13:12:54;22.05;;;13.40;;
76423;SDS011;65257;52.104;4.268;2023-04-08T13:15:21;21.48;;;13.32;;
76423;SDS011;65257;52.104;4.268;2023-04-08T13:17:49;22.02;;;14.60;;
76423;SDS011;65257;52.104;4.268;2023-04-08T13:20:15;20.15;;;12.70;;
76423;SDS011;65257;52.104;4.268;2023-04-08T13:22:40;21.80;;;14.95;;
76423;SDS011;65257;52.104;4.268;2023-04-08T13:25:06;19.58;;;13.68;;
76423;SDS011;65257;52.104;4.268;2023-04-08T13:27:31;21.05;;;14.30;;
76423;SDS011;65257;52.104;4.268;2023-04-08T13:29:57;22.77;;;14.90;;
76423;SDS011;65257;52.104;4.268;2023-04-08T13:32:25;22.48;;;14.57;;
76423;SDS011;65257;52.104;4.268;2023-04-08T13:34:53;23.65;;;14.02;;
76423;SDS011;65257;52.104;4.268;2023-04-08T13:37:19;22.98;;;14.98;;
76423;SDS011;65257;52.104;4.268;2023-04-08T13:39:44;25.02;;;15.23;;
76423;SDS011;65257;52.104;4.268;2023-04-08T13:42:10;20.38;;;14.05;;
76423;SDS011;65257;52.104;4.268;2023-04-08T13:44:36;18.95;;;13.68;;
76423;SDS011;65257;52.104;4.268;2023-04-08T13:47:08;22.27;;;14.30;;
76423;SDS011;65257;52.104;4.268;2023-04-08T13:49:36;21.98;;;13.88;;
76423;SDS011;65257;52.104;4.268;2023-04-08T13:52:02;24.15;;;14.30;;
76423;SDS011;65257;52.104;4.268;2023-04-08T13:54:28;21.80;;;13.48;;
76423;SDS011;65257;52.104;4.268;2023-04-08T13:56:53;23.83;;;14.70;;
76423;SDS011;65257;52.104;4.268;2023-04-08T13:59:18;27.30;;;15.07;;
76423;SDS011;65257;52.104;4.268;2023-04-08T14:01:44;22.25;;;13.10;;
76423;SDS011;65257;52.104;4.268;2023-04-08T14:04:09;23.65;;;13.90;;
76423;SDS011;65257;52.104;4.268;2023-04-08T14:06:35;21.33;;;14.48;;
76423;SDS011;65257;52.104;4.268;2023-04-08T14:09:00;25.58;;;14.35;;
76423;SDS011;65257;52.104;4.268;2023-04-08T14:11:28;23.05;;;13.15;;
76423;SDS011;65257;52.104;4.268;2023-04-08T14:14:00;22.80;;;13.50;;
76423;SDS011;65257;52.104;4.268;2023-04-08T14:16:25;22.80;;;14.70;;
76423;SDS011;65257;52.104;4.268;2023-04-08T14:18:51;24.70;;;13.93;;
76423;SDS011;65257;52.104;4.268;2023-04-08T14:21:17;22.45;;;14.40;;
76423;SDS011;65257;52.104;4.268;2023-04-08T14:23:45;23.58;;;14.63;;
76423;SDS011;65257;52.104;4.268;2023-04-08T14:26:11;21.63;;;13.02;;
76423;SDS011;65257;52.104;4.268;2023-04-08T14:28:36;20.85;;;12.60;;
76423;SDS011;65257;52.104;4.268;2023-04-08T14:31:05;20.83;;;12.75;;
76423;SDS011;65257;52.104;4.268;2023-04-08T14:33:36;21.23;;;12.82;;
76423;SDS011;65257;52.104;4.268;2023-04-08T14:36:03;21.25;;;12.90;;
76423;SDS011;65257;52.104;4.268;2023-04-08T14:38:28;21.35;;;12.57;;
76423;SDS011;65257;52.104;4.268;2023-04-08T14:40:53;22.92;;;13.93;;
76423;SDS011;65257;52.104;4.268;2023-04-08T14:43:19;27.42;;;13.85;;
76423;SDS011;65257;52.104;4.268;2023-04-08T14:45:45;21.42;;;13.13;;
76423;SDS011;65257;52.104;4.268;2023-04-08T14:48:19;21.88;;;12.77;;
76423;SDS011;65257;52.104;4.268;2023-04-08T14:50:45;23.77;;;12.93;;
76423;SDS011;65257;52.104;4.268;2023-04-08T14:53:10;20.77;;;12.57;;